sensor_id;sensor_type;location;lat;lon;timestamp;pressure;altitude;pressure_sealevel;temperature;humidity
74893;BME280;63446;56.272;43.922;2023-08-06T00:01:57;101157.28;;;22.79;68.47
74893;BME280;63446;56.272;43.922;2023-08-06T00:04:23;101154.94;;;22.77;68.55
74893;BME280;63446;56.272;43.922;2023-08-06T00:06:48;101160.66;;;22.76;68.56
74893;BME280;63446;56.272;43.922;2023-08-06T00:09:14;101158.28;;;22.74;68.82
74893;BME280;63446;56.272;43.922;2023-08-06T00:11:40;101154.38;;;22.72;68.73
74893;BME280;63446;56.272;43.922;2023-08-06T00:14:06;101163.22;;;22.72;68.81
74893;BME280;63446;56.272;43.922;2023-08-06T00:16:33;101162.75;;;22.70;68.77
74893;BME280;63446;56.272;43.922;2023-08-06T00:18:59;101159.16;;;22.66;68.95
74893;BME280;63446;56.272;43.922;2023-08-06T00:21:26;101164.19;;;22.67;69.00
74893;BME280;63446;56.272;43.922;2023-08-06T00:23:52;101169.16;;;22.65;69.03
74893;BME280;63446;56.272;43.922;2023-08-06T00:26:18;101166.78;;;22.64;68.88
74893;BME280;63446;56.272;43.922;2023-08-06T00:28:43;101163.63;;;22.62;69.03
74893;BME280;63446;56.272;43.922;2023-08-06T00:31:09;101158.59;;;22.60;69.09
74893;BME280;63446;56.272;43.922;2023-08-06T00:33:35;101160.81;;;22.58;69.01
74893;BME280;63446;56.272;43.922;2023-08-06T00:36:02;101159.22;;;22.57;69.19
74893;BME280;63446;56.272;43.922;2023-08-06T00:38:28;101164.94;;;22.56;68.95
74893;BME280;63446;56.272;43.922;2023-08-06T00:40:54;101157.97;;;22.55;69.07
74893;BME280;63446;56.272;43.922;2023-08-06T00:43:20;101165.63;;;22.53;69.07
74893;BME280;63446;56.272;43.922;2023-08-06T00:45:46;101169.41;;;22.52;69.18
74893;BME280;63446;56.272;43.922;2023-08-06T00:48:12;101165.50;;;22.49;69.28
74893;BME280;63446;56.272;43.922;2023-08-06T00:50:38;101166.59;;;22.48;69.04
74893;BME280;63446;56.272;43.922;2023-08-06T00:53:04;101165.78;;;22.48;69.11
74893;BME280;63446;56.272;43.922;2023-08-06T00:55:31;101178.47;;;22.47;69.01
74893;BME280;63446;56.272;43.922;2023-08-06T00:57:57;101175.00;;;22.47;69.10
74893;BME280;63446;56.272;43.922;2023-08-06T01:00:24;101171.84;;;22.45;68.94
74893;BME280;63446;56.272;43.922;2023-08-06T01:02:50;101182.59;;;22.45;69.13
74893;BME280;63446;56.272;43.922;2023-08-06T01:05:16;101182.16;;;22.42;69.22
74893;BME280;63446;56.272;43.922;2023-08-06T01:13:16;101192.47;;;22.40;69.20
74893;BME280;63446;56.272;43.922;2023-08-06T01:15:50;101188.69;;;22.41;69.19
74893;BME280;63446;56.272;43.922;2023-08-06T01:18:19;101198.66;;;22.41;69.29
74893;BME280;63446;56.272;43.922;2023-08-06T01:20:45;101191.03;;;22.43;69.43
74893;BME280;63446;56.272;43.922;2023-08-06T01:23:11;101182.59;;;22.45;69.39
74893;BME280;63446;56.272;43.922;2023-08-06T01:25:49;101188.47;;;22.47;69.36
74893;BME280;63446;56.272;43.922;2023-08-06T01:31:21;101193.66;;;22.52;68.94
74893;BME280;63446;56.272;43.922;2023-08-06T01:33:49;101187.94;;;22.53;68.64
74893;BME280;63446;56.272;43.922;2023-08-06T01:36:16;101185.38;;;22.57;68.75
74893;BME280;63446;56.272;43.922;2023-08-06T01:38:44;101190.09;;;22.60;68.60
74893;BME280;63446;56.272;43.922;2023-08-06T01:41:10;101184.84;;;22.63;68.82
74893;BME280;63446;56.272;43.922;2023-08-06T01:43:36;101186.56;;;22.68;68.77
74893;BME280;63446;56.272;43.922;2023-08-06T01:46:02;101195.56;;;22.72;68.57
74893;BME280;63446;56.272;43.922;2023-08-06T01:48:28;101195.81;;;22.79;68.56
74893;BME280;63446;56.272;43.922;2023-08-06T01:50:54;101190.22;;;22.84;68.19
74893;BME280;63446;56.272;43.922;2023-08-06T01:53:19;101197.81;;;22.91;68.02
74893;BME280;63446;56.272;43.922;2023-08-06T01:55:49;101197.06;;;23.03;67.71
74893;BME280;63446;56.272;43.922;2023-08-06T01:58:15;101194.69;;;23.71;65.92
74893;BME280;63446;56.272;43.922;2023-08-06T02:00:41;101204.34;;;24.74;63.15
74893;BME280;63446;56.272;43.922;2023-08-06T02:03:07;101205.53;;;25.96;60.26
74893;BME280;63446;56.272;43.922;2023-08-06T02:05:33;101217.41;;;27.23;56.80
74893;BME280;63446;56.272;43.922;2023-08-06T02:07:59;101207.69;;;28.52;53.72
74893;BME280;63446;56.272;43.922;2023-08-06T02:10:25;101202.66;;;29.73;50.60
74893;BME280;63446;56.272;43.922;2023-08-06T02:12:50;101207.50;;;30.84;47.90
74893;BME280;63446;56.272;43.922;2023-08-06T02:15:16;101208.28;;;31.74;45.66
74893;BME280;63446;56.272;43.922;2023-08-06T02:17:43;101202.88;;;32.80;43.46
74893;BME280;63446;56.272;43.922;2023-08-06T02:20:29;101207.41;;;33.94;41.04
74893;BME280;63446;56.272;43.922;2023-08-06T02:22:54;101209.34;;;34.89;39.06
74893;BME280;63446;56.272;43.922;2023-08-06T02:25:20;101214.50;;;35.81;37.47
74893;BME280;63446;56.272;43.922;2023-08-06T02:27:46;101211.91;;;36.70;35.87
74893;BME280;63446;56.272;43.922;2023-08-06T02:30:12;101213.38;;;37.56;34.23
74893;BME280;63446;56.272;43.922;2023-08-06T02:32:38;101206.88;;;38.21;33.28
74893;BME280;63446;56.272;43.922;2023-08-06T02:35:05;101208.78;;;38.75;32.22
74893;BME280;63446;56.272;43.922;2023-08-06T02:37:33;101212.72;;;39.25;31.42
74893;BME280;63446;56.272;43.922;2023-08-06T02:40:00;101209.66;;;39.80;30.63
74893;BME280;63446;56.272;43.922;2023-08-06T02:42:26;101212.78;;;40.44;29.53
74893;BME280;63446;56.272;43.922;2023-08-06T02:44:53;101211.03;;;41.18;28.71
74893;BME280;63446;56.272;43.922;2023-08-06T02:47:22;101221.16;;;42.04;27.77
74893;BME280;63446;56.272;43.922;2023-08-06T02:49:47;101218.84;;;42.87;26.42
74893;BME280;63446;56.272;43.922;2023-08-06T02:52:14;101218.88;;;43.65;25.37
74893;BME280;63446;56.272;43.922;2023-08-06T02:54:40;101233.09;;;44.41;24.56
74893;BME280;63446;56.272;43.922;2023-08-06T02:57:06;101220.63;;;45.13;23.55
74893;BME280;63446;56.272;43.922;2023-08-06T02:59:34;101220.19;;;45.87;22.56
74893;BME280;63446;56.272;43.922;2023-08-06T03:02:06;101212.81;;;46.58;21.60
74893;BME280;63446;56.272;43.922;2023-08-06T03:04:51;101211.59;;;47.36;20.92
74893;BME280;63446;56.272;43.922;2023-08-06T03:07:20;101216.50;;;48.03;20.16
74893;BME280;63446;56.272;43.922;2023-08-06T03:09:53;101213.06;;;48.66;19.71
74893;BME280;63446;56.272;43.922;2023-08-06T03:12:20;101217.94;;;49.24;19.14
74893;BME280;63446;56.272;43.922;2023-08-06T03:14:47;101218.81;;;49.84;19.05
74893;BME280;63446;56.272;43.922;2023-08-06T03:17:14;101219.78;;;50.42;18.21
74893;BME280;63446;56.272;43.922;2023-08-06T03:19:41;101215.78;;;50.99;17.52
74893;BME280;63446;56.272;43.922;2023-08-06T03:22:07;101223.16;;;51.53;16.91
74893;BME280;63446;56.272;43.922;2023-08-06T03:24:34;101215.06;;;52.09;16.22
74893;BME280;63446;56.272;43.922;2023-08-06T03:27:01;101219.44;;;52.63;15.85
74893;BME280;63446;56.272;43.922;2023-08-06T03:29:27;101223.97;;;53.13;15.69
74893;BME280;63446;56.272;43.922;2023-08-06T03:31:55;101219.22;;;53.63;15.21
74893;BME280;63446;56.272;43.922;2023-08-06T03:34:21;101221.06;;;54.10;15.26
74893;BME280;63446;56.272;43.922;2023-08-06T03:36:49;101215.69;;;54.56;14.57
74893;BME280;63446;56.272;43.922;2023-08-06T03:39:15;101220.38;;;54.98;14.46
74893;BME280;63446;56.272;43.922;2023-08-06T03:41:42;101212.69;;;55.44;14.15
74893;BME280;63446;56.272;43.922;2023-08-06T03:44:07;101216.09;;;55.89;13.69
74893;BME280;63446;56.272;43.922;2023-08-06T03:46:33;101216.19;;;56.29;13.49
74893;BME280;63446;56.272;43.922;2023-08-06T03:49:02;101213.22;;;56.67;13.15
74893;BME280;63446;56.272;43.922;2023-08-06T03:51:28;101209.22;;;57.03;12.95
74893;BME280;63446;56.272;43.922;2023-08-06T03:53:56;101204.03;;;57.42;12.49
74893;BME280;63446;56.272;43.922;2023-08-06T03:56:22;101208.03;;;57.81;12.55
74893;BME280;63446;56.272;43.922;2023-08-06T03:58:49;101209.56;;;58.17;12.35
74893;BME280;63446;56.272;43.922;2023-08-06T04:01:15;101209.50;;;58.52;12.25
74893;BME280;63446;56.272;43.922;2023-08-06T04:03:43;101209.44;;;58.86;11.75
74893;BME280;63446;56.272;43.922;2023-08-06T04:06:11;101204.34;;;59.22;11.41
74893;BME280;63446;56.272;43.922;2023-08-06T04:08:37;101206.06;;;59.54;11.16
74893;BME280;63446;56.272;43.922;2023-08-06T04:11:03;101211.09;;;59.82;11.16
74893;BME280;63446;56.272;43.922;2023-08-06T04:13:30;101206.28;;;60.14;10.68
74893;BME280;63446;56.272;43.922;2023-08-06T04:16:04;101202.50;;;60.41;10.47
74893;BME280;63446;56.272;43.922;2023-08-06T04:18:32;101192.81;;;60.65;10.35
74893;BME280;63446;56.272;43.922;2023-08-06T04:20:58;101192.09;;;60.96;10.08
74893;BME280;63446;56.272;43.922;2023-08-06T04:23:25;101200.53;;;61.25;9.75
74893;BME280;63446;56.272;43.922;2023-08-06T04:25:56;101198.88;;;61.53;9.66
74893;BME280;63446;56.272;43.922;2023-08-06T04:28:25;101200.63;;;61.80;9.36
74893;BME280;63446;56.272;43.922;2023-08-06T04:30:52;101199.38;;;62.04;9.17
74893;BME280;63446;56.272;43.922;2023-08-06T04:33:20;101199.31;;;62.26;8.86
74893;BME280;63446;56.272;43.922;2023-08-06T04:35:47;101197.63;;;62.44;8.69
74893;BME280;63446;56.272;43.922;2023-08-06T04:38:13;101188.69;;;62.61;8.49
74893;BME280;63446;56.272;43.922;2023-08-06T04:40:39;101189.66;;;62.78;8.62
74893;BME280;63446;56.272;43.922;2023-08-06T04:43:06;101186.44;;;62.95;8.49
74893;BME280;63446;56.272;43.922;2023-08-06T04:45:34;101173.22;;;63.13;8.19
74893;BME280;63446;56.272;43.922;2023-08-06T04:48:00;101181.78;;;63.37;8.17
74893;BME280;63446;56.272;43.922;2023-08-06T04:50:26;101177.47;;;63.61;8.00
74893;BME280;63446;56.272;43.922;2023-08-06T04:52:52;101177.25;;;63.83;8.20
74893;BME280;63446;56.272;43.922;2023-08-06T04:55:18;101169.81;;;64.03;7.98
74893;BME280;63446;56.272;43.922;2023-08-06T04:57:45;101176.53;;;64.22;7.91
74893;BME280;63446;56.272;43.922;2023-08-06T05:00:12;101169.47;;;64.36;7.72
74893;BME280;63446;56.272;43.922;2023-08-06T05:02:38;101172.34;;;64.50;7.67
74893;BME280;63446;56.272;43.922;2023-08-06T05:05:05;101161.44;;;64.74;7.76
74893;BME280;63446;56.272;43.922;2023-08-06T05:07:31;101159.09;;;64.98;7.45
74893;BME280;63446;56.272;43.922;2023-08-06T05:09:57;101153.84;;;65.08;7.09
74893;BME280;63446;56.272;43.922;2023-08-06T05:12:23;101149.38;;;65.19;7.17
74893;BME280;63446;56.272;43.922;2023-08-06T05:14:49;101150.97;;;65.22;6.59
74893;BME280;63446;56.272;43.922;2023-08-06T05:17:15;101145.31;;;65.24;6.75
74893;BME280;63446;56.272;43.922;2023-08-06T05:19:41;101150.09;;;65.20;6.26
74893;BME280;63446;56.272;43.922;2023-08-06T05:22:07;101152.78;;;65.16;6.49
74893;BME280;63446;56.272;43.922;2023-08-06T05:24:33;101148.53;;;65.17;6.35
74893;BME280;63446;56.272;43.922;2023-08-06T05:26:59;101149.91;;;65.16;6.25
74893;BME280;63446;56.272;43.922;2023-08-06T05:29:25;101145.13;;;65.06;6.29
74893;BME280;63446;56.272;43.922;2023-08-06T05:31:52;101142.66;;;65.01;6.35
74893;BME280;63446;56.272;43.922;2023-08-06T05:34:19;101148.00;;;64.93;6.51
74893;BME280;63446;56.272;43.922;2023-08-06T05:36:45;101147.47;;;64.96;6.56
74893;BME280;63446;56.272;43.922;2023-08-06T05:39:11;101145.88;;;65.07;6.26
74893;BME280;63446;56.272;43.922;2023-08-06T05:41:37;101137.88;;;65.19;6.55
74893;BME280;63446;56.272;43.922;2023-08-06T05:44:03;101140.94;;;65.37;6.34
74893;BME280;63446;56.272;43.922;2023-08-06T05:46:28;101136.66;;;65.38;6.30
74893;BME280;63446;56.272;43.922;2023-08-06T05:49:06;101124.41;;;65.38;6.60
74893;BME280;63446;56.272;43.922;2023-08-06T05:51:40;101128.41;;;65.46;6.30
74893;BME280;63446;56.272;43.922;2023-08-06T05:54:11;101128.25;;;65.58;6.46
74893;BME280;63446;56.272;43.922;2023-08-06T05:56:37;101128.13;;;65.70;6.36
74893;BME280;63446;56.272;43.922;2023-08-06T05:59:03;101127.00;;;65.77;6.09
74893;BME280;63446;56.272;43.922;2023-08-06T06:01:29;101132.50;;;65.71;5.74
74893;BME280;63446;56.272;43.922;2023-08-06T06:03:56;101128.50;;;65.19;6.09
74893;BME280;63446;56.272;43.922;2023-08-06T06:06:22;101124.50;;;63.51;7.31
74893;BME280;63446;56.272;43.922;2023-08-06T06:08:48;101101.66;;;61.32;8.51
74893;BME280;63446;56.272;43.922;2023-08-06T06:11:14;101094.97;;;58.98;9.61
74893;BME280;63446;56.272;43.922;2023-08-06T06:13:40;101087.72;;;56.69;10.55
74893;BME280;63446;56.272;43.922;2023-08-06T06:16:06;101099.47;;;54.54;11.42
74893;BME280;63446;56.272;43.922;2023-08-06T06:18:32;101094.97;;;52.53;13.17
74893;BME280;63446;56.272;43.922;2023-08-06T06:20:58;101095.91;;;50.72;13.91
74893;BME280;63446;56.272;43.922;2023-08-06T06:23:24;101101.94;;;49.10;14.99
74893;BME280;63446;56.272;43.922;2023-08-06T06:25:50;101090.97;;;47.62;16.28
74893;BME280;63446;56.272;43.922;2023-08-06T06:28:19;101098.81;;;46.25;17.69
74893;BME280;63446;56.272;43.922;2023-08-06T06:30:45;101104.97;;;45.08;18.66
74893;BME280;63446;56.272;43.922;2023-08-06T06:33:11;101104.72;;;44.09;19.70
74893;BME280;63446;56.272;43.922;2023-08-06T06:35:37;101105.34;;;43.25;20.65
74893;BME280;63446;56.272;43.922;2023-08-06T06:38:03;101098.50;;;42.48;20.89
74893;BME280;63446;56.272;43.922;2023-08-06T06:40:29;101108.00;;;41.81;22.00
74893;BME280;63446;56.272;43.922;2023-08-06T06:42:55;101102.41;;;41.20;23.02
74893;BME280;63446;56.272;43.922;2023-08-06T06:45:21;101103.91;;;40.66;23.77
74893;BME280;63446;56.272;43.922;2023-08-06T06:47:48;101099.75;;;40.12;23.72
74893;BME280;63446;56.272;43.922;2023-08-06T06:50:14;101110.09;;;39.67;24.03
74893;BME280;63446;56.272;43.922;2023-08-06T06:52:39;101121.72;;;39.18;24.25
74893;BME280;63446;56.272;43.922;2023-08-06T06:55:06;101115.41;;;38.70;24.75
74893;BME280;63446;56.272;43.922;2023-08-06T06:57:32;101109.38;;;38.24;25.24
74893;BME280;63446;56.272;43.922;2023-08-06T06:59:58;101111.91;;;37.93;26.79
74893;BME280;63446;56.272;43.922;2023-08-06T07:02:23;101104.00;;;37.66;27.22
74893;BME280;63446;56.272;43.922;2023-08-06T07:04:50;101107.00;;;37.43;26.77
74893;BME280;63446;56.272;43.922;2023-08-06T07:07:16;101114.72;;;37.19;26.92
74893;BME280;63446;56.272;43.922;2023-08-06T07:09:42;101113.47;;;36.90;26.79
74893;BME280;63446;56.272;43.922;2023-08-06T07:12:08;101112.94;;;36.63;27.38
74893;BME280;63446;56.272;43.922;2023-08-06T07:14:34;101113.06;;;36.39;27.73
74893;BME280;63446;56.272;43.922;2023-08-06T07:17:00;101116.75;;;36.16;27.87
74893;BME280;63446;56.272;43.922;2023-08-06T07:19:27;101111.00;;;35.91;28.13
74893;BME280;63446;56.272;43.922;2023-08-06T07:21:53;101121.66;;;35.69;28.51
74893;BME280;63446;56.272;43.922;2023-08-06T07:24:19;101122.41;;;35.50;28.64
74893;BME280;63446;56.272;43.922;2023-08-06T07:26:45;101119.97;;;35.32;28.82
74893;BME280;63446;56.272;43.922;2023-08-06T07:29:11;101115.47;;;35.21;29.28
74893;BME280;63446;56.272;43.922;2023-08-06T07:31:36;101128.19;;;35.12;29.58
74893;BME280;63446;56.272;43.922;2023-08-06T07:34:02;101123.28;;;35.00;29.42
74893;BME280;63446;56.272;43.922;2023-08-06T07:36:28;101120.03;;;34.81;29.82
74893;BME280;63446;56.272;43.922;2023-08-06T07:38:54;101120.97;;;34.71;29.12
74893;BME280;63446;56.272;43.922;2023-08-06T07:41:23;101111.34;;;34.59;29.02
74893;BME280;63446;56.272;43.922;2023-08-06T07:43:49;101113.38;;;34.55;29.45
74893;BME280;63446;56.272;43.922;2023-08-06T07:46:15;101121.72;;;34.48;29.88
74893;BME280;63446;56.272;43.922;2023-08-06T07:48:41;101122.94;;;34.43;30.13
74893;BME280;63446;56.272;43.922;2023-08-06T07:51:07;101119.88;;;34.38;30.17
74893;BME280;63446;56.272;43.922;2023-08-06T07:53:33;101126.97;;;34.35;31.07
74893;BME280;63446;56.272;43.922;2023-08-06T07:55:58;101128.16;;;34.34;30.86
74893;BME280;63446;56.272;43.922;2023-08-06T07:58:25;101117.63;;;34.33;31.27
74893;BME280;63446;56.272;43.922;2023-08-06T08:00:51;101118.03;;;34.31;30.70
74893;BME280;63446;56.272;43.922;2023-08-06T08:03:18;101124.31;;;34.28;31.18
74893;BME280;63446;56.272;43.922;2023-08-06T08:05:45;101124.75;;;34.26;31.60
74893;BME280;63446;56.272;43.922;2023-08-06T08:08:11;101125.09;;;34.29;31.27
74893;BME280;63446;56.272;43.922;2023-08-06T08:10:37;101123.16;;;34.29;30.95
74893;BME280;63446;56.272;43.922;2023-08-06T08:13:04;101116.09;;;34.28;31.04
74893;BME280;63446;56.272;43.922;2023-08-06T08:15:31;101116.94;;;34.25;31.47
74893;BME280;63446;56.272;43.922;2023-08-06T08:17:58;101125.72;;;34.13;32.25
74893;BME280;63446;56.272;43.922;2023-08-06T08:20:24;101116.56;;;33.92;31.98
74893;BME280;63446;56.272;43.922;2023-08-06T08:22:50;101115.16;;;33.77;31.60
74893;BME280;63446;56.272;43.922;2023-08-06T08:25:16;101117.72;;;33.61;31.73
74893;BME280;63446;56.272;43.922;2023-08-06T08:27:43;101124.06;;;33.50;31.60
74893;BME280;63446;56.272;43.922;2023-08-06T08:30:09;101113.56;;;33.42;31.63
74893;BME280;63446;56.272;43.922;2023-08-06T08:32:35;101114.81;;;33.37;31.34
74893;BME280;63446;56.272;43.922;2023-08-06T08:35:01;101108.59;;;33.33;31.66
74893;BME280;63446;56.272;43.922;2023-08-06T08:37:29;101108.97;;;33.32;31.52
74893;BME280;63446;56.272;43.922;2023-08-06T08:39:55;101111.41;;;33.26;31.25
74893;BME280;63446;56.272;43.922;2023-08-06T08:42:22;101121.19;;;33.23;30.99
74893;BME280;63446;56.272;43.922;2023-08-06T08:44:47;101122.84;;;33.14;30.52
74893;BME280;63446;56.272;43.922;2023-08-06T08:47:14;101112.78;;;33.03;30.48
74893;BME280;63446;56.272;43.922;2023-08-06T08:49:43;101110.50;;;32.91;30.95
74893;BME280;63446;56.272;43.922;2023-08-06T08:52:10;101111.31;;;32.85;30.95
74893;BME280;63446;56.272;43.922;2023-08-06T08:54:38;101113.31;;;32.80;31.38
74893;BME280;63446;56.272;43.922;2023-08-06T08:57:05;101105.88;;;32.81;31.14
74893;BME280;63446;56.272;43.922;2023-08-06T08:59:33;101118.78;;;32.80;31.51
74893;BME280;63446;56.272;43.922;2023-08-06T09:02:00;101111.00;;;32.79;31.83
74893;BME280;63446;56.272;43.922;2023-08-06T09:04:29;101103.19;;;32.74;31.18
74893;BME280;63446;56.272;43.922;2023-08-06T09:06:59;101122.72;;;32.79;31.17
74893;BME280;63446;56.272;43.922;2023-08-06T09:09:28;101107.88;;;32.77;30.73
74893;BME280;63446;56.272;43.922;2023-08-06T09:12:00;101109.09;;;32.72;31.36
74893;BME280;63446;56.272;43.922;2023-08-06T09:14:28;101105.19;;;32.70;31.04
74893;BME280;63446;56.272;43.922;2023-08-06T09:16:54;101109.13;;;32.65;30.69
74893;BME280;63446;56.272;43.922;2023-08-06T09:19:20;101102.50;;;32.63;30.56
74893;BME280;63446;56.272;43.922;2023-08-06T09:21:48;101107.63;;;32.57;30.88
74893;BME280;63446;56.272;43.922;2023-08-06T09:24:16;101104.50;;;32.55;31.51
74893;BME280;63446;56.272;43.922;2023-08-06T09:26:44;101107.63;;;32.57;31.45
74893;BME280;63446;56.272;43.922;2023-08-06T09:29:11;101114.25;;;32.60;31.37
74893;BME280;63446;56.272;43.922;2023-08-06T09:31:45;101102.94;;;32.57;31.64
74893;BME280;63446;56.272;43.922;2023-08-06T09:36:50;101102.94;;;32.54;31.12
74893;BME280;63446;56.272;43.922;2023-08-06T09:39:21;101093.22;;;32.49;30.78
74893;BME280;63446;56.272;43.922;2023-08-06T09:41:48;101090.91;;;32.44;30.71
74893;BME280;63446;56.272;43.922;2023-08-06T09:44:19;101095.59;;;32.40;30.89
74893;BME280;63446;56.272;43.922;2023-08-06T09:46:49;101077.25;;;32.37;30.92
74893;BME280;63446;56.272;43.922;2023-08-06T09:49:18;101091.31;;;32.36;30.63
74893;BME280;63446;56.272;43.922;2023-08-06T09:51:45;101086.63;;;32.32;30.35
74893;BME280;63446;56.272;43.922;2023-08-06T09:54:15;101081.97;;;32.33;30.42
74893;BME280;63446;56.272;43.922;2023-08-06T09:56:42;101087.84;;;32.28;30.35
74893;BME280;63446;56.272;43.922;2023-08-06T09:59:09;101081.63;;;32.24;30.46
74893;BME280;63446;56.272;43.922;2023-08-06T10:01:36;101076.56;;;32.22;30.07
74893;BME280;63446;56.272;43.922;2023-08-06T10:04:05;101078.53;;;32.22;29.94
74893;BME280;63446;56.272;43.922;2023-08-06T10:06:34;101076.59;;;32.19;30.51
74893;BME280;63446;56.272;43.922;2023-08-06T10:09:05;101073.44;;;32.17;30.54
74893;BME280;63446;56.272;43.922;2023-08-06T10:11:32;101070.72;;;32.17;30.70
74893;BME280;63446;56.272;43.922;2023-08-06T10:14:04;101064.88;;;32.18;30.92
74893;BME280;63446;56.272;43.922;2023-08-06T10:16:32;101067.59;;;32.22;30.59
74893;BME280;63446;56.272;43.922;2023-08-06T10:18:58;101069.91;;;32.23;30.32
74893;BME280;63446;56.272;43.922;2023-08-06T10:21:25;101065.63;;;32.22;30.15
74893;BME280;63446;56.272;43.922;2023-08-06T10:23:54;101055.88;;;32.21;30.38
74893;BME280;63446;56.272;43.922;2023-08-06T10:26:20;101060.53;;;32.21;30.17
74893;BME280;63446;56.272;43.922;2023-08-06T10:28:50;101058.59;;;32.21;29.57
74893;BME280;63446;56.272;43.922;2023-08-06T10:31:16;101062.88;;;32.22;29.90
74893;BME280;63446;56.272;43.922;2023-08-06T10:33:43;101060.94;;;32.23;29.88
74893;BME280;63446;56.272;43.922;2023-08-06T10:36:10;101057.81;;;32.21;29.92
74893;BME280;63446;56.272;43.922;2023-08-06T10:38:47;101057.47;;;32.15;30.06
74893;BME280;63446;56.272;43.922;2023-08-06T10:41:36;101057.47;;;32.12;30.40
74893;BME280;63446;56.272;43.922;2023-08-06T10:44:09;101053.59;;;32.05;30.79
74893;BME280;63446;56.272;43.922;2023-08-06T10:46:36;101043.47;;;32.02;30.93
74893;BME280;63446;56.272;43.922;2023-08-06T10:49:04;101051.28;;;32.00;30.88
74893;BME280;63446;56.272;43.922;2023-08-06T10:51:30;101051.31;;;31.93;30.41
74893;BME280;63446;56.272;43.922;2023-08-06T10:53:56;101039.63;;;31.89;30.18
74893;BME280;63446;56.272;43.922;2023-08-06T10:56:25;101045.50;;;31.88;30.28
74893;BME280;63446;56.272;43.922;2023-08-06T10:58:54;101045.50;;;31.88;30.45
74893;BME280;63446;56.272;43.922;2023-08-06T11:01:23;101036.13;;;31.89;30.41
74893;BME280;63446;56.272;43.922;2023-08-06T11:03:50;101025.16;;;31.92;31.36
74893;BME280;63446;56.272;43.922;2023-08-06T11:06:18;101031.03;;;31.94;30.68
74893;BME280;63446;56.272;43.922;2023-08-06T11:08:51;101032.16;;;32.00;31.09
74893;BME280;63446;56.272;43.922;2023-08-06T11:11:17;101038.38;;;32.04;31.24
74893;BME280;63446;56.272;43.922;2023-08-06T11:13:45;101034.84;;;32.07;31.07
74893;BME280;63446;56.272;43.922;2023-08-06T11:16:15;101034.44;;;32.09;30.47
74893;BME280;63446;56.272;43.922;2023-08-06T11:18:42;101030.13;;;32.12;30.18
74893;BME280;63446;56.272;43.922;2023-08-06T11:21:08;101034.06;;;32.11;30.01
74893;BME280;63446;56.272;43.922;2023-08-06T11:23:35;101033.66;;;32.12;30.08
74893;BME280;63446;56.272;43.922;2023-08-06T11:26:02;101033.25;;;32.14;30.33
74893;BME280;63446;56.272;43.922;2023-08-06T11:28:29;101037.91;;;32.17;30.35
74893;BME280;63446;56.272;43.922;2023-08-06T11:30:55;101024.22;;;32.17;30.41
74893;BME280;63446;56.272;43.922;2023-08-06T11:33:23;101028.16;;;32.16;30.31
74893;BME280;63446;56.272;43.922;2023-08-06T11:35:52;101028.94;;;32.16;30.18
74893;BME280;63446;56.272;43.922;2023-08-06T11:38:18;101022.69;;;32.16;29.98
74893;BME280;63446;56.272;43.922;2023-08-06T11:40:45;101023.88;;;32.15;29.93
74893;BME280;63446;56.272;43.922;2023-08-06T11:43:14;101018.78;;;32.13;30.64
74893;BME280;63446;56.272;43.922;2023-08-06T11:45:40;101017.63;;;32.14;30.33
74893;BME280;63446;56.272;43.922;2023-08-06T11:48:07;101022.28;;;32.17;29.99
74893;BME280;63446;56.272;43.922;2023-08-06T11:50:38;101024.22;;;32.17;29.80
74893;BME280;63446;56.272;43.922;2023-08-06T11:53:07;101018.38;;;32.22;29.99
74893;BME280;63446;56.272;43.922;2023-08-06T11:55:33;101017.94;;;32.23;30.45
74893;BME280;63446;56.272;43.922;2023-08-06T11:58:04;101021.84;;;32.26;30.59
74893;BME280;63446;56.272;43.922;2023-08-06T12:00:33;101017.94;;;32.27;30.44
74893;BME280;63446;56.272;43.922;2023-08-06T12:02:59;101017.13;;;32.30;30.19
74893;BME280;63446;56.272;43.922;2023-08-06T12:05:30;101017.13;;;32.30;29.83
74893;BME280;63446;56.272;43.922;2023-08-06T12:07:58;101005.75;;;32.35;29.53
74893;BME280;63446;56.272;43.922;2023-08-06T12:10:25;101016.66;;;32.42;29.81
74893;BME280;63446;56.272;43.922;2023-08-06T12:12:52;101014.69;;;32.46;30.44
74893;BME280;63446;56.272;43.922;2023-08-06T12:15:18;101018.59;;;32.49;30.93
74893;BME280;63446;56.272;43.922;2023-08-06T12:17:44;101015.50;;;32.36;31.05
74893;BME280;63446;56.272;43.922;2023-08-06T12:20:10;101018.69;;;32.31;31.31
74893;BME280;63446;56.272;43.922;2023-08-06T12:22:37;101007.75;;;32.31;31.46
74893;BME280;63446;56.272;43.922;2023-08-06T12:25:09;101006.97;;;32.30;31.56
74893;BME280;63446;56.272;43.922;2023-08-06T12:27:38;101012.44;;;32.30;31.26
74893;BME280;63446;56.272;43.922;2023-08-06T12:30:05;101010.88;;;32.29;31.33
74893;BME280;63446;56.272;43.922;2023-08-06T12:32:35;101009.31;;;32.28;31.48
74893;BME280;63446;56.272;43.922;2023-08-06T12:35:02;100999.97;;;32.26;31.52
74893;BME280;63446;56.272;43.922;2023-08-06T12:37:33;100998.81;;;32.23;31.92
74893;BME280;63446;56.272;43.922;2023-08-06T12:39:59;100998.50;;;32.14;31.97
74893;BME280;63446;56.272;43.922;2023-08-06T12:42:24;101000.09;;;32.04;31.99
74893;BME280;63446;56.272;43.922;2023-08-06T12:44:52;100995.44;;;32.01;31.91
74893;BME280;63446;56.272;43.922;2023-08-06T12:47:18;100991.56;;;31.99;32.06
74893;BME280;63446;56.272;43.922;2023-08-06T12:49:44;100994.28;;;31.99;31.82
74893;BME280;63446;56.272;43.922;2023-08-06T12:52:10;100995.44;;;32.01;32.08